Time,TemperatureF,DewpointF,PressureIn,WindDirection,WindDirectionDegrees,WindSpeedMPH,WindSpeedGustMPH,Humidity,HourlyPrecipIn,Conditions,Clouds,dailyrainin,SoftwareType,DateUTC
2013-01-29 00:05:00,34.4,34.4,29.95,SSE,162,0.0,0.0,100,0.00,,,0.00,Wunderground v.1.15,2013-01-29 05:05:00,
2013-01-29 00:09:00,34.6,34.6,29.95,SSE,162,1.0,1.0,100,0.00,,,0.00,Wunderground v.1.15,2013-01-29 05:09:00,
2013-01-29 00:15:00,34.6,34.6,29.95,SSE,162,0.0,1.0,100,0.00,,,0.00,Wunderground v.1.15,2013-01-29 05:15:00,
2013-01-29 00:20:00,34.6,34.6,29.95,SSE,162,0.0,0.0,100,0.00,,,0.00,Wunderground v.1.15,2013-01-29 05:20:00,
2013-01-29 00:29:00,34.7,34.7,29.94,SSE,162,2.0,2.0,100,0.00,,,0.00,Wunderground v.1.15,2013-01-29 05:29:00,
2013-01-29 00:35:00,35.0,35.0,29.94,SSE,162,2.0,2.0,100,0.00,,,0.00,Wunderground v.1.15,2013-01-29 05:35:00,
2013-01-29 00:44:00,35.3,35.3,29.93,SSE,162,1.0,1.0,100,0.25,,,0.11,Wunderground v.1.15,2013-01-29 05:44:00,
2013-01-29 00:50:00,35.5,35.5,29.93,SSE,162,1.0,1.0,100,0.07,,,0.11,Wunderground v.1.15,2013-01-29 05:50:00,
2013-01-29 01:00:00,35.5,35.5,29.93,SSE,162,0.0,0.0,100,0.00,,,0.11,Wunderground v.1.15,2013-01-29 06:00:00,
2013-01-29 01:05:00,35.5,35.5,29.93,SSE,162,0.0,0.0,100,0.00,,,0.11,Wunderground v.1.15,2013-01-29 06:05:00,
2013-01-29 01:15:00,35.5,35.5,29.94,SSE,162,0.0,0.0,100,0.00,,,0.11,Wunderground v.1.15,2013-01-29 06:15:00,
2013-01-29 01:20:00,35.6,35.6,29.94,SSE,162,0.0,1.0,100,0.00,,,0.11,Wunderground v.1.15,2013-01-29 06:20:00,
2013-01-29 01:30:00,35.8,35.8,29.94,SSE,162,0.0,1.0,100,0.00,,,0.11,Wunderground v.1.15,2013-01-29 06:30:00,
2013-01-29 01:35:00,35.8,35.8,29.94,SSE,162,0.0,1.0,100,0.00,,,0.11,Wunderground v.1.15,2013-01-29 06:35:00,
2013-01-29 01:45:00,35.8,35.8,29.95,SSE,162,0.0,1.0,100,0.00,,,0.11,Wunderground v.1.15,2013-01-29 06:45:00,
2013-01-29 01:50:00,35.8,35.8,29.95,SSE,162,0.0,0.0,100,0.00,,,0.11,Wunderground v.1.15,2013-01-29 06:50:00,
2013-01-29 01:59:00,35.6,35.6,29.95,SSE,162,0.0,0.0,100,0.00,,,0.11,Wunderground v.1.15,2013-01-29 06:59:00,
2013-01-29 02:05:00,35.5,35.5,29.95,SSE,162,0.0,0.0,100,0.00,,,0.11,Wunderground v.1.15,2013-01-29 07:05:00,
2013-01-29 02:15:00,35.2,35.2,29.96,SSE,162,0.0,0.0,100,0.00,,,0.11,Wunderground v.1.15,2013-01-29 07:15:00,
2013-01-29 02:20:00,35.0,35.0,29.96,SSE,162,0.0,0.0,100,0.00,,,0.11,Wunderground v.1.15,2013-01-29 07:20:00,
2013-01-29 02:30:00,35.3,35.3,29.96,SSE,162,0.0,0.0,100,0.00,,,0.11,Wunderground v.1.15,2013-01-29 07:30:00,
2013-01-29 02:35:00,35.6,35.6,29.96,SSE,162,0.0,0.0,100,0.00,,,0.11,Wunderground v.1.15,2013-01-29 07:35:00,
2013-01-29 02:45:00,35.8,35.8,29.95,SSE,162,0.0,0.0,100,0.00,,,0.11,Wunderground v.1.15,2013-01-29 07:45:00,
2013-01-29 02:55:00,35.2,35.2,29.95,SSE,162,0.0,0.0,100,0.00,,,0.11,Wunderground v.1.15,2013-01-29 07:55:00,
2013-01-29 03:05:00,35.0,35.0,29.96,SSE,162,0.0,0.0,100,0.00,,,0.11,Wunderground v.1.15,2013-01-29 08:05:00,
2013-01-29 03:10:00,35.0,35.0,29.96,SSE,162,0.0,0.0,100,0.00,,,0.11,Wunderground v.1.15,2013-01-29 08:10:00,
2013-01-29 03:15:00,35.0,35.0,29.95,SSE,162,0.0,0.0,100,0.00,,,0.11,Wunderground v.1.15,2013-01-29 08:15:00,
2013-01-29 03:20:00,35.0,35.0,29.95,SSE,162,0.0,0.0,100,0.00,,,0.11,Wunderground v.1.15,2013-01-29 08:20:00,
2013-01-29 03:30:00,35.3,35.3,29.95,SSE,162,0.0,0.0,100,0.00,,,0.11,Wunderground v.1.15,2013-01-29 08:30:00,
2013-01-29 03:35:00,35.5,35.5,29.95,SSE,162,0.0,0.0,100,0.00,,,0.11,Wunderground v.1.15,2013-01-29 08:35:00,
2013-01-29 03:45:00,35.5,35.5,29.95,SSE,162,0.0,0.0,100,0.00,,,0.11,Wunderground v.1.15,2013-01-29 08:45:00,
2013-01-29 03:55:00,35.2,35.2,29.95,SSE,162,0.0,0.0,100,0.00,,,0.11,Wunderground v.1.15,2013-01-29 08:55:00,
2013-01-29 04:05:00,34.9,34.9,29.96,SSE,162,0.0,2.0,100,0.00,,,0.11,Wunderground v.1.15,2013-01-29 09:05:00,
2013-01-29 04:15:00,34.9,34.9,29.96,SSE,162,0.0,1.0,100,0.00,,,0.11,Wunderground v.1.15,2013-01-29 09:15:00,
2013-01-29 04:20:00,34.9,34.9,29.96,SSE,162,1.0,1.0,100,0.00,,,0.11,Wunderground v.1.15,2013-01-29 09:20:00,
2013-01-29 04:25:00,35.0,35.0,29.96,SSE,162,1.0,2.0,100,0.00,,,0.11,Wunderground v.1.15,2013-01-29 09:25:00,
2013-01-29 04:35:00,35.2,35.2,29.96,SSE,162,0.0,1.0,100,0.00,,,0.11,Wunderground v.1.15,2013-01-29 09:35:00,
2013-01-29 04:44:00,35.0,35.0,29.97,SSE,162,0.0,0.0,100,0.00,,,0.11,Wunderground v.1.15,2013-01-29 09:44:00,
2013-01-29 04:50:00,35.0,35.0,29.97,SSE,162,0.0,0.0,100,0.00,,,0.11,Wunderground v.1.15,2013-01-29 09:50:00,
2013-01-29 05:00:00,34.9,34.9,29.98,SSE,162,0.0,0.0,100,0.00,,,0.12,Wunderground v.1.15,2013-01-29 10:00:00,
2013-01-29 05:04:00,34.9,34.9,29.98,SSE,162,0.0,0.0,100,0.00,,,0.12,Wunderground v.1.15,2013-01-29 10:04:00,
2013-01-29 05:10:00,34.9,34.9,29.98,SSE,162,0.0,0.0,100,0.00,,,0.12,Wunderground v.1.15,2013-01-29 10:10:00,
2013-01-29 05:20:00,34.7,34.7,29.98,SSE,162,0.0,2.0,100,0.00,,,0.12,Wunderground v.1.15,2013-01-29 10:20:00,
2013-01-29 05:29:00,34.6,34.6,29.99,SSE,162,1.0,1.0,100,0.00,,,0.12,Wunderground v.1.15,2013-01-29 10:29:00,
2013-01-29 05:35:00,34.6,34.6,29.99,SSE,162,1.0,1.0,100,0.00,,,0.12,Wunderground v.1.15,2013-01-29 10:35:00,
2013-01-29 05:45:00,34.3,34.3,29.99,SSE,162,0.0,0.0,100,0.00,,,0.12,Wunderground v.1.15,2013-01-29 10:45:00,
2013-01-29 05:49:00,34.3,34.3,29.99,SSE,162,0.0,0.0,100,0.00,,,0.12,Wunderground v.1.15,2013-01-29 10:49:00,
2013-01-29 05:55:00,34.3,34.3,29.99,SSE,162,0.0,0.0,100,0.00,,,0.12,Wunderground v.1.15,2013-01-29 10:55:00,
2013-01-29 06:05:00,34.3,34.3,29.99,SSE,162,0.0,0.0,100,0.00,,,0.13,Wunderground v.1.15,2013-01-29 11:05:00,
2013-01-29 06:10:00,34.3,34.3,29.99,SSE,162,0.0,2.0,100,0.00,,,0.13,Wunderground v.1.15,2013-01-29 11:10:00,
2013-01-29 06:20:00,34.3,34.3,30.00,SSE,162,1.0,1.0,100,0.00,,,0.13,Wunderground v.1.15,2013-01-29 11:20:00,
2013-01-29 06:30:00,34.4,34.4,30.01,SSE,162,1.0,1.0,100,0.00,,,0.13,Wunderground v.1.15,2013-01-29 11:30:00,
2013-01-29 06:40:00,34.4,34.4,30.01,SSE,162,1.0,1.0,100,0.00,,,0.13,Wunderground v.1.15,2013-01-29 11:40:00,
2013-01-29 06:45:00,34.4,34.4,30.01,SSE,162,1.0,1.0,100,0.00,,,0.13,Wunderground v.1.15,2013-01-29 11:45:00,
2013-01-29 06:50:00,34.4,34.4,30.01,SSE,162,1.0,1.0,100,0.00,,,0.13,Wunderground v.1.15,2013-01-29 11:50:00,
2013-01-29 07:00:00,34.6,34.6,30.01,SSE,162,0.0,0.0,100,0.00,,,0.13,Wunderground v.1.15,2013-01-29 12:00:00,
2013-01-29 07:04:00,34.6,34.6,30.01,SSE,162,0.0,0.0,100,0.00,,,0.13,Wunderground v.1.15,2013-01-29 12:04:00,
2013-01-29 07:10:00,34.6,34.6,30.01,SSE,162,0.0,0.0,100,0.00,,,0.13,Wunderground v.1.15,2013-01-29 12:10:00,
2013-01-29 07:20:00,34.6,34.6,30.03,SSE,162,1.0,1.0,100,0.00,,,0.13,Wunderground v.1.15,2013-01-29 12:20:00,
2013-01-29 07:30:00,34.7,34.7,30.04,SSE,162,1.0,4.0,100,0.00,,,0.13,Wunderground v.1.15,2013-01-29 12:30:00,
2013-01-29 07:40:00,34.7,34.7,30.04,SSE,162,2.0,2.0,100,0.00,,,0.13,Wunderground v.1.15,2013-01-29 12:40:00,
2013-01-29 07:50:00,34.9,34.9,30.04,SSE,162,0.0,0.0,100,0.00,,,0.13,Wunderground v.1.15,2013-01-29 12:50:00,
2013-01-29 08:00:00,34.9,34.9,30.06,SSE,162,1.0,2.0,100,0.00,,,0.13,Wunderground v.1.15,2013-01-29 13:00:00,
2013-01-29 08:05:00,35.0,35.0,30.06,SSE,162,1.0,2.0,100,0.00,,,0.13,Wunderground v.1.15,2013-01-29 13:05:00,
2013-01-29 08:15:00,35.0,35.0,30.06,SSE,160,2.0,5.0,100,0.00,,,0.13,Wunderground v.1.15,2013-01-29 13:15:00,
2013-01-29 08:20:00,35.0,35.0,30.06,SSE,158,2.0,2.0,100,0.00,,,0.13,Wunderground v.1.15,2013-01-29 13:20:00,
2013-01-29 08:29:00,35.2,35.2,30.06,SSE,158,2.0,3.0,100,0.00,,,0.13,Wunderground v.1.15,2013-01-29 13:29:00,
2013-01-29 08:35:00,35.3,35.3,30.06,SSE,158,2.0,3.0,100,0.00,,,0.13,Wunderground v.1.15,2013-01-29 13:35:00,
2013-01-29 08:45:00,35.3,35.3,30.07,SSE,158,2.0,2.0,100,0.00,,,0.13,Wunderground v.1.15,2013-01-29 13:45:00,
2013-01-29 08:50:00,35.5,35.5,30.07,SSE,158,1.0,1.0,100,0.00,,,0.13,Wunderground v.1.15,2013-01-29 13:50:00,
2013-01-29 09:00:00,35.6,35.6,30.08,SSE,158,2.0,2.0,100,0.00,,,0.13,Wunderground v.1.15,2013-01-29 14:00:00,
2013-01-29 09:05:00,35.6,35.6,30.08,SSE,158,3.0,3.0,100,0.00,,,0.13,Wunderground v.1.15,2013-01-29 14:05:00,
2013-01-29 09:10:00,35.8,35.8,30.08,SSE,158,3.0,5.0,100,0.00,,,0.13,Wunderground v.1.15,2013-01-29 14:10:00,
2013-01-29 09:20:00,35.9,35.9,30.08,SSE,158,3.0,3.0,100,0.00,,,0.13,Wunderground v.1.15,2013-01-29 14:20:00,
2013-01-29 09:30:00,36.0,36.0,30.08,SSE,158,2.0,2.0,100,0.00,,,0.13,Wunderground v.1.15,2013-01-29 14:30:00,
2013-01-29 09:40:00,36.2,36.2,30.08,SSE,158,2.0,2.0,100,0.00,,,0.13,Wunderground v.1.15,2013-01-29 14:40:00,
2013-01-29 09:50:00,36.3,36.3,30.08,SSE,158,3.0,3.0,100,0.00,,,0.13,Wunderground v.1.15,2013-01-29 14:50:00,
2013-01-29 10:00:00,36.5,36.5,30.08,SSE,158,2.0,2.0,100,0.00,,,0.13,Wunderground v.1.15,2013-01-29 15:00:00,
2013-01-29 10:05:00,36.6,36.6,30.08,SSE,158,2.0,3.0,100,0.00,,,0.13,Wunderground v.1.15,2013-01-29 15:05:00,
2013-01-29 10:10:00,36.8,36.8,30.08,SSE,158,2.0,2.0,100,0.00,,,0.13,Wunderground v.1.15,2013-01-29 15:10:00,
2013-01-29 10:20:00,36.9,36.9,30.08,SSE,158,2.0,3.0,100,0.00,,,0.13,Wunderground v.1.15,2013-01-29 15:20:00,
2013-01-29 10:29:00,37.0,37.0,30.09,SSE,158,3.0,3.0,100,0.00,,,0.13,Wunderground v.1.15,2013-01-29 15:29:00,
2013-01-29 10:34:00,37.2,37.2,30.09,SSE,158,2.0,3.0,100,0.00,,,0.13,Wunderground v.1.15,2013-01-29 15:34:00,
2013-01-29 10:40:00,37.3,37.3,30.09,SSE,158,2.0,2.0,100,0.00,,,0.13,Wunderground v.1.15,2013-01-29 15:40:00,
2013-01-29 10:50:00,37.5,37.5,30.09,SSE,158,2.0,2.0,100,0.00,,,0.13,Wunderground v.1.15,2013-01-29 15:50:00,
2013-01-29 11:00:00,37.6,37.6,30.09,SSE,158,2.0,2.0,100,0.00,,,0.13,Wunderground v.1.15,2013-01-29 16:00:00,
2013-01-29 11:04:00,37.6,37.6,30.09,SSE,158,2.0,2.0,100,0.00,,,0.13,Wunderground v.1.15,2013-01-29 16:04:00,
2013-01-29 11:10:00,37.9,37.9,30.09,SSE,158,2.0,3.0,100,0.00,,,0.13,Wunderground v.1.15,2013-01-29 16:10:00,
2013-01-29 11:20:00,38.2,38.2,30.09,SSE,158,3.0,3.0,100,0.00,,,0.13,Wunderground v.1.15,2013-01-29 16:20:00,
2013-01-29 11:25:00,38.3,38.3,30.09,SSE,158,2.0,3.0,100,0.00,,,0.13,Wunderground v.1.15,2013-01-29 16:25:00,
2013-01-29 11:35:00,38.3,38.3,30.09,SSE,158,3.0,4.0,100,0.00,,,0.13,Wunderground v.1.15,2013-01-29 16:35:00,
2013-01-29 11:40:00,38.3,38.3,30.09,SSE,158,2.0,2.0,100,0.00,,,0.13,Wunderground v.1.15,2013-01-29 16:40:00,
2013-01-29 11:50:00,38.5,38.5,30.09,SSE,158,2.0,2.0,100,0.00,,,0.13,Wunderground v.1.15,2013-01-29 16:50:00,
2013-01-29 11:55:00,38.5,38.5,30.09,SSE,158,2.0,2.0,100,0.00,,,0.13,Wunderground v.1.15,2013-01-29 16:55:00,
2013-01-29 12:05:00,38.6,38.6,30.09,SSE,158,1.0,2.0,100,0.00,,,0.13,Wunderground v.1.15,2013-01-29 17:05:00,
2013-01-29 12:10:00,38.8,38.8,30.09,SSE,158,1.0,2.0,100,0.00,,,0.13,Wunderground v.1.15,2013-01-29 17:10:00,
2013-01-29 12:19:00,38.8,38.8,30.09,SSE,158,1.0,1.0,100,0.00,,,0.13,Wunderground v.1.15,2013-01-29 17:19:00,
2013-01-29 12:25:00,38.8,38.8,30.09,SSE,158,0.0,1.0,100,0.00,,,0.13,Wunderground v.1.15,2013-01-29 17:25:00,
2013-01-29 12:35:00,38.9,38.9,30.09,SSE,158,0.0,0.0,100,0.00,,,0.13,Wunderground v.1.15,2013-01-29 17:35:00,
2013-01-29 12:45:00,39.1,39.1,30.08,SSE,158,0.0,0.0,100,0.00,,,0.13,Wunderground v.1.15,2013-01-29 17:45:00,
2013-01-29 12:50:00,38.9,38.9,30.08,SSE,158,0.0,0.0,100,0.00,,,0.13,Wunderground v.1.15,2013-01-29 17:50:00,
2013-01-29 13:00:00,39.1,39.1,30.08,SSE,158,0.0,0.0,100,0.00,,,0.13,Wunderground v.1.15,2013-01-29 18:00:00,
2013-01-29 13:05:00,38.9,38.9,30.08,SSE,158,0.0,0.0,100,0.00,,,0.13,Wunderground v.1.15,2013-01-29 18:05:00,
2013-01-29 13:15:00,38.9,38.9,30.09,SSE,158,0.0,0.0,100,0.00,,,0.13,Wunderground v.1.15,2013-01-29 18:15:00,
2013-01-29 13:20:00,38.9,38.9,30.09,SSE,158,0.0,0.0,100,0.00,,,0.13,Wunderground v.1.15,2013-01-29 18:20:00,
2013-01-29 13:30:00,38.8,38.8,30.09,SSE,158,0.0,4.0,100,0.00,,,0.13,Wunderground v.1.15,2013-01-29 18:30:00,
2013-01-29 13:40:00,38.8,38.8,30.09,SSE,158,1.0,1.0,100,0.00,,,0.13,Wunderground v.1.15,2013-01-29 18:40:00,
2013-01-29 13:50:00,38.5,38.5,30.08,SSE,158,1.0,1.0,100,0.00,,,0.13,Wunderground v.1.15,2013-01-29 18:50:00,
2013-01-29 14:00:00,38.3,38.3,30.08,SSE,158,2.0,2.0,100,0.00,,,0.13,Wunderground v.1.15,2013-01-29 19:00:00,
2013-01-29 14:10:00,38.3,38.3,30.08,SSE,158,2.0,2.0,100,0.00,,,0.13,Wunderground v.1.15,2013-01-29 19:10:00,
2013-01-29 14:20:00,38.3,38.3,30.09,SSE,158,1.0,1.0,100,0.00,,,0.13,Wunderground v.1.15,2013-01-29 19:20:00,
2013-01-29 14:30:00,38.3,38.3,30.10,SSE,158,2.0,5.0,100,0.00,,,0.13,Wunderground v.1.15,2013-01-29 19:30:00,
2013-01-29 14:35:00,38.2,38.2,30.10,SSE,158,1.0,5.0,100,0.00,,,0.13,Wunderground v.1.15,2013-01-29 19:35:00,
2013-01-29 14:45:00,38.0,38.0,30.11,SSE,158,2.0,6.0,100,0.00,,,0.13,Wunderground v.1.15,2013-01-29 19:45:00,
2013-01-29 14:55:00,38.0,38.0,30.11,SSE,158,2.0,6.0,100,0.00,,,0.13,Wunderground v.1.15,2013-01-29 19:55:00,
2013-01-29 15:00:00,38.0,38.0,30.11,SSE,158,2.0,2.0,100,0.00,,,0.13,Wunderground v.1.15,2013-01-29 20:00:00,
2013-01-29 15:10:00,37.9,37.9,30.11,SSE,158,1.0,2.0,100,0.00,,,0.13,Wunderground v.1.15,2013-01-29 20:10:00,
2013-01-29 15:20:00,38.0,38.0,30.11,SSE,158,2.0,2.0,100,0.00,,,0.13,Wunderground v.1.15,2013-01-29 20:20:00,
2013-01-29 15:25:00,38.0,38.0,30.11,SSE,158,2.0,3.0,100,0.00,,,0.13,Wunderground v.1.15,2013-01-29 20:25:00,
2013-01-29 15:35:00,38.0,38.0,30.12,SSE,158,3.0,3.0,100,0.00,,,0.13,Wunderground v.1.15,2013-01-29 20:35:00,
2013-01-29 15:40:00,38.0,38.0,30.12,SSE,158,2.0,2.0,100,0.00,,,0.13,Wunderground v.1.15,2013-01-29 20:40:00,
2013-01-29 15:50:00,38.2,38.2,30.13,SSE,158,2.0,2.0,100,0.00,,,0.13,Wunderground v.1.15,2013-01-29 20:50:00,
2013-01-29 16:00:00,38.0,38.0,30.12,SSE,158,2.0,4.0,100,0.00,,,0.13,Wunderground v.1.15,2013-01-29 21:00:00,
2013-01-29 16:10:00,37.9,37.9,30.12,SSE,158,3.0,3.0,100,0.00,,,0.13,Wunderground v.1.15,2013-01-29 21:10:00,
2013-01-29 16:15:00,37.9,37.9,30.11,SSE,158,3.0,3.0,100,0.00,,,0.13,Wunderground v.1.15,2013-01-29 21:15:00,
2013-01-29 16:20:00,37.8,37.8,30.11,SSE,158,3.0,3.0,100,0.00,,,0.13,Wunderground v.1.15,2013-01-29 21:20:00,
2013-01-29 16:25:00,37.8,37.8,30.11,SSE,158,3.0,3.0,100,0.00,,,0.13,Wunderground v.1.15,2013-01-29 21:25:00,
2013-01-29 16:34:00,37.8,37.8,30.11,SSE,158,4.0,4.0,100,0.00,,,0.13,Wunderground v.1.15,2013-01-29 21:34:00,
2013-01-29 16:40:00,37.8,37.8,30.11,SSE,160,4.0,6.0,100,0.00,,,0.13,Wunderground v.1.15,2013-01-29 21:40:00,
2013-01-29 16:50:00,37.9,37.9,30.11,SSE,162,3.0,3.0,100,0.00,,,0.13,Wunderground v.1.15,2013-01-29 21:50:00,
2013-01-29 16:59:00,37.8,37.8,30.11,SSE,162,3.0,3.0,100,0.00,,,0.13,Wunderground v.1.15,2013-01-29 21:59:00,
2013-01-29 17:05:00,37.8,37.8,30.11,SSE,162,3.0,3.0,100,0.00,,,0.13,Wunderground v.1.15,2013-01-29 22:05:00,
2013-01-29 17:14:00,37.9,37.9,30.12,SSE,162,4.0,6.0,100,0.00,,,0.13,Wunderground v.1.15,2013-01-29 22:14:00,
2013-01-29 17:19:00,37.9,37.9,30.12,SSE,162,4.0,4.0,100,0.00,,,0.13,Wunderground v.1.15,2013-01-29 22:19:00,
2013-01-29 17:25:00,37.9,37.9,30.12,SSE,164,4.0,7.0,100,0.00,,,0.13,Wunderground v.1.15,2013-01-29 22:25:00,
2013-01-29 17:35:00,38.0,38.0,30.12,SSE,167,4.0,8.0,100,0.00,,,0.13,Wunderground v.1.15,2013-01-29 22:35:00,
2013-01-29 17:45:00,38.3,38.3,30.13,SSE,167,5.0,5.0,100,0.00,,,0.13,Wunderground v.1.15,2013-01-29 22:45:00,
2013-01-29 17:50:00,38.5,38.5,30.13,SSE,167,5.0,6.0,100,0.00,,,0.13,Wunderground v.1.15,2013-01-29 22:50:00,
2013-01-29 17:59:00,38.5,38.5,30.14,SSE,167,5.0,6.0,100,0.00,,,0.13,Wunderground v.1.15,2013-01-29 22:59:00,
2013-01-29 18:04:00,38.6,38.6,30.14,SSE,168,6.0,7.0,100,0.00,,,0.13,Wunderground v.1.15,2013-01-29 23:04:00,
2013-01-29 18:10:00,38.6,38.6,30.14,SSE,168,6.0,6.0,100,0.00,,,0.13,Wunderground v.1.15,2013-01-29 23:10:00,
2013-01-29 18:20:00,38.5,38.5,30.14,South,170,5.0,6.0,100,0.00,,,0.13,Wunderground v.1.15,2013-01-29 23:20:00,
2013-01-29 18:30:00,38.5,38.5,30.14,South,170,5.0,5.0,100,0.00,,,0.13,Wunderground v.1.15,2013-01-29 23:30:00,
2013-01-29 18:35:00,38.3,38.3,30.14,South,170,6.0,7.0,100,0.00,,,0.13,Wunderground v.1.15,2013-01-29 23:35:00,
2013-01-29 18:45:00,38.3,38.3,30.14,South,170,5.0,5.0,100,0.00,,,0.13,Wunderground v.1.15,2013-01-29 23:45:00,
2013-01-29 18:50:00,38.2,38.2,30.14,South,172,6.0,6.0,100,0.00,,,0.13,Wunderground v.1.15,2013-01-29 23:50:00,
2013-01-29 19:00:00,38.2,38.2,30.14,South,178,6.0,6.0,100,0.00,,,0.13,Wunderground v.1.15,2013-01-30 00:00:00,
2013-01-29 19:05:00,38.0,38.0,30.14,South,178,6.0,6.0,100,0.00,,,0.13,Wunderground v.1.15,2013-01-30 00:05:00,
2013-01-29 19:15:00,37.9,37.9,30.13,South,178,6.0,9.0,100,0.00,,,0.13,Wunderground v.1.15,2013-01-30 00:15:00,
2013-01-29 19:20:00,37.8,37.8,30.13,South,178,6.0,7.0,100,0.00,,,0.13,Wunderground v.1.15,2013-01-30 00:20:00,
2013-01-29 19:30:00,37.9,37.9,30.14,South,178,7.0,8.0,100,0.00,,,0.13,Wunderground v.1.15,2013-01-30 00:30:00,
2013-01-29 19:35:00,37.9,37.9,30.14,South,178,6.0,8.0,100,0.00,,,0.13,Wunderground v.1.15,2013-01-30 00:35:00,
2013-01-29 19:40:00,38.0,38.0,30.14,South,178,5.0,5.0,100,0.00,,,0.13,Wunderground v.1.15,2013-01-30 00:40:00,
2013-01-29 19:50:00,38.2,38.2,30.15,South,178,5.0,5.0,100,0.00,,,0.13,Wunderground v.1.15,2013-01-30 00:50:00,
2013-01-29 19:55:00,38.2,38.2,30.15,South,178,4.0,7.0,100,0.00,,,0.13,Wunderground v.1.15,2013-01-30 00:55:00,
2013-01-29 20:04:00,38.2,38.2,30.16,South,178,5.0,5.0,100,0.00,,,0.13,Wunderground v.1.15,2013-01-30 01:04:00,
2013-01-29 20:10:00,38.2,38.2,30.16,South,178,5.0,5.0,100,0.00,,,0.13,Wunderground v.1.15,2013-01-30 01:10:00,
2013-01-29 20:20:00,37.8,37.8,30.16,South,178,5.0,5.0,100,0.00,,,0.13,Wunderground v.1.15,2013-01-30 01:20:00,
2013-01-29 20:30:00,37.5,37.5,30.15,South,178,4.0,5.0,100,0.00,,,0.13,Wunderground v.1.15,2013-01-30 01:30:00,
2013-01-29 20:40:00,37.5,37.5,30.15,South,178,5.0,5.0,100,0.00,,,0.13,Wunderground v.1.15,2013-01-30 01:40:00,
2013-01-29 20:49:00,37.6,37.6,30.14,South,178,5.0,5.0,100,0.00,,,0.13,Wunderground v.1.15,2013-01-30 01:49:00,
2013-01-29 21:00:00,38.0,38.0,30.15,South,178,5.0,5.0,100,0.00,,,0.13,Wunderground v.1.15,2013-01-30 02:00:00,
2013-01-29 21:05:00,38.2,38.2,30.15,South,178,6.0,7.0,100,0.00,,,0.13,Wunderground v.1.15,2013-01-30 02:05:00,
2013-01-29 21:15:00,38.2,38.2,30.14,South,178,6.0,7.0,100,0.00,,,0.13,Wunderground v.1.15,2013-01-30 02:15:00,
2013-01-29 21:25:00,38.5,38.5,30.14,South,178,6.0,8.0,100,0.00,,,0.13,Wunderground v.1.15,2013-01-30 02:25:00,
2013-01-29 21:34:00,38.6,38.6,30.13,South,178,7.0,11.0,100,0.00,,,0.13,Wunderground v.1.15,2013-01-30 02:34:00,
2013-01-29 21:40:00,38.8,38.8,30.13,South,178,8.0,8.0,100,0.00,,,0.13,Wunderground v.1.15,2013-01-30 02:40:00,
2013-01-29 21:54:00,38.9,38.9,30.12,South,178,6.0,7.0,100,0.00,,,0.13,Wunderground v.1.15,2013-01-30 02:54:00,
2013-01-29 22:00:00,38.9,38.9,30.14,South,178,6.0,7.0,100,0.00,,,0.13,Wunderground v.1.15,2013-01-30 03:00:00,
2013-01-29 22:05:00,38.9,38.9,30.14,South,178,6.0,7.0,100,0.00,,,0.13,Wunderground v.1.15,2013-01-30 03:05:00,
2013-01-29 22:14:00,39.2,39.2,30.14,South,178,7.0,10.0,100,0.00,,,0.13,Wunderground v.1.15,2013-01-30 03:14:00,
2013-01-29 22:20:00,39.1,39.1,30.14,South,178,7.0,7.0,100,0.00,,,0.13,Wunderground v.1.15,2013-01-30 03:20:00,
2013-01-29 22:30:00,39.2,39.2,30.13,South,178,7.0,7.0,100,0.00,,,0.13,Wunderground v.1.15,2013-01-30 03:30:00,
2013-01-29 22:35:00,39.2,39.2,30.13,South,178,6.0,7.0,100,0.00,,,0.13,Wunderground v.1.15,2013-01-30 03:35:00,
2013-01-29 22:45:00,39.1,39.1,30.13,South,178,6.0,8.0,100,0.00,,,0.13,Wunderground v.1.15,2013-01-30 03:45:00,
2013-01-29 22:50:00,39.2,39.2,30.13,South,178,7.0,7.0,100,0.00,,,0.13,Wunderground v.1.15,2013-01-30 03:50:00,
2013-01-29 22:59:00,39.6,39.6,30.12,SSE,168,7.0,7.0,100,0.00,,,0.13,Wunderground v.1.15,2013-01-30 03:59:00,
2013-01-29 23:05:00,39.8,39.8,30.12,South,178,8.0,8.0,100,0.00,,,0.13,Wunderground v.1.15,2013-01-30 04:05:00,
2013-01-29 23:15:00,39.9,39.9,30.12,South,178,7.0,8.0,100,0.00,,,0.13,Wunderground v.1.15,2013-01-30 04:15:00,
2013-01-29 23:20:00,39.9,39.9,30.12,South,178,7.0,7.0,100,0.00,,,0.13,Wunderground v.1.15,2013-01-30 04:20:00,
2013-01-29 23:30:00,40.1,40.1,30.11,South,178,7.0,7.0,100,0.00,,,0.13,Wunderground v.1.15,2013-01-30 04:30:00,
2013-01-29 23:35:00,40.1,40.1,30.11,South,178,7.0,8.0,100,0.00,,,0.13,Wunderground v.1.15,2013-01-30 04:35:00,
2013-01-29 23:44:00,39.8,39.8,30.11,South,175,7.0,7.0,100,0.00,,,0.13,Wunderground v.1.15,2013-01-30 04:44:00,
2013-01-29 23:50:00,39.8,39.8,30.11,South,177,6.0,7.0,100,0.00,,,0.13,Wunderground v.1.15,2013-01-30 04:50:00,